createdAt,value
2019-03-03T00:00:03.935Z,798.03
2019-03-03T00:00:08.229Z,798.05
2019-03-03T00:00:44.424Z,797.95
2019-03-03T00:00:48.633Z,797.95
2019-03-03T00:00:52.917Z,797.96
2019-03-03T00:00:57.217Z,797.94
2019-03-03T00:01:01.611Z,797.95
2019-03-03T00:01:05.807Z,797.95
2019-03-03T00:01:10.096Z,797.94
2019-03-03T00:01:14.385Z,797.9
2019-03-03T00:01:18.666Z,797.95
2019-03-03T00:01:22.878Z,797.95
2019-03-03T00:01:27.173Z,797.97
2019-03-03T00:01:31.503Z,797.92
2019-03-03T00:01:35.811Z,797.92
2019-03-03T00:01:40.098Z,797.91
2019-03-03T00:01:44.399Z,797.91
2019-03-03T00:01:48.747Z,797.93
2019-03-03T00:01:53.040Z,797.88
2019-03-03T00:01:57.326Z,797.94
2019-03-03T00:02:01.611Z,797.92
2019-03-03T00:02:05.905Z,797.95
2019-03-03T00:02:10.220Z,797.96
2019-03-03T00:02:14.507Z,797.95
2019-03-03T00:02:18.822Z,797.96
2019-03-03T00:02:23.115Z,797.95
2019-03-03T00:02:27.364Z,797.95
2019-03-03T00:02:31.653Z,797.98
2019-03-03T00:02:35.962Z,798
2019-03-03T00:02:40.249Z,797.94
2019-03-03T00:02:44.540Z,797.99
2019-03-03T00:02:48.742Z,797.95
2019-03-03T00:02:52.942Z,798.02
2019-03-03T00:02:57.233Z,797.97
2019-03-03T00:03:01.532Z,797.96
2019-03-03T00:03:05.825Z,797.98
2019-03-03T00:03:10.019Z,797.97
2019-03-03T00:03:14.213Z,798.01
2019-03-03T00:03:18.514Z,798.02
2019-03-03T00:03:22.716Z,798.03
2019-03-03T00:03:27.005Z,798.04
2019-03-03T00:03:31.339Z,798.04
2019-03-03T00:03:35.636Z,798.06
2019-03-03T00:03:39.947Z,798.06
2019-03-03T00:03:44.236Z,798.05
2019-03-03T00:03:48.535Z,798.06
2019-03-03T00:03:52.829Z,798.06
2019-03-03T00:03:57.129Z,798.08
2019-03-03T00:04:01.320Z,798.05
2019-03-03T00:04:05.669Z,798.06
2019-03-03T00:04:09.865Z,798.04
2019-03-03T00:04:14.152Z,798.03
2019-03-03T00:04:18.439Z,798.02
2019-03-03T00:04:22.782Z,798.11
2019-03-03T00:04:27.077Z,798.1
2019-03-03T00:04:31.367Z,798.11
2019-03-03T00:04:35.707Z,798.09
2019-03-03T00:04:39.992Z,798.09
2019-03-03T00:04:44.317Z,798.13
2019-03-03T00:04:48.616Z,798.1
2019-03-03T00:04:52.907Z,798.08
2019-03-03T00:04:57.202Z,798.07
2019-03-03T00:05:01.498Z,798.14
2019-03-03T00:05:05.836Z,798.14
2019-03-03T00:05:10.132Z,798.12
2019-03-03T00:05:14.422Z,798.15
2019-03-03T00:05:18.707Z,798.12
2019-03-03T00:05:22.995Z,798.12
2019-03-03T00:05:27.292Z,798.06
2019-03-03T00:05:31.588Z,798.11
2019-03-03T00:05:35.887Z,798.09
2019-03-03T00:05:40.077Z,798.09
2019-03-03T00:05:44.278Z,798.08
2019-03-03T00:05:48.579Z,798.08
2019-03-03T00:05:52.884Z,798.09
2019-03-03T00:05:57.173Z,798.1
2019-03-03T00:06:01.365Z,798.14
2019-03-03T00:06:05.664Z,798.12
2019-03-03T00:06:09.955Z,798.14
2019-03-03T00:06:14.251Z,798.12
2019-03-03T00:06:18.542Z,798.1
2019-03-03T00:06:22.842Z,798.12
2019-03-03T00:06:27.150Z,798.13
2019-03-03T00:06:31.443Z,798.12
2019-03-03T00:06:35.742Z,798.13
2019-03-03T00:06:40.033Z,798.17
2019-03-03T00:06:44.221Z,798.17
2019-03-03T00:06:48.453Z,798.12
2019-03-03T00:06:52.766Z,798.15
2019-03-03T00:06:57.056Z,798.14
2019-03-03T00:07:01.342Z,798.14
2019-03-03T00:07:05.629Z,798.12
2019-03-03T00:07:09.913Z,798.13
2019-03-03T00:07:14.199Z,798.17
2019-03-03T00:07:18.487Z,798.14
2019-03-03T00:07:22.784Z,798.11
2019-03-03T00:07:27.111Z,798.13
2019-03-03T00:07:31.401Z,798.16
2019-03-03T00:07:35.690Z,798.12
2019-03-03T00:07:39.975Z,798.16
2019-03-03T00:07:44.276Z,798.15
2019-03-03T00:07:48.568Z,798.13
2019-03-03T00:07:52.888Z,798.18
2019-03-03T00:07:57.183Z,798.16
2019-03-03T00:08:01.468Z,798.18
2019-03-03T00:08:05.657Z,798.18
2019-03-03T00:08:09.951Z,798.19
2019-03-03T00:08:14.248Z,798.19
2019-03-03T00:08:18.554Z,798.19
2019-03-03T00:08:24.529Z,798.16
2019-03-03T00:08:29.029Z,798.21
2019-03-03T00:08:33.328Z,798.23
2019-03-03T00:08:37.530Z,798.23
2019-03-03T00:08:41.827Z,798.22
2019-03-03T00:08:46.129Z,798.24
2019-03-03T00:08:50.430Z,798.23
2019-03-03T00:08:54.576Z,798.19
2019-03-03T00:08:58.674Z,798.21
2019-03-03T00:09:03.066Z,798.23
2019-03-03T00:09:07.408Z,798.25
2019-03-03T00:09:11.696Z,798.29
2019-03-03T00:09:15.993Z,798.23
2019-03-03T00:09:20.333Z,798.28
2019-03-03T00:09:24.626Z,798.26
2019-03-03T00:09:28.922Z,798.27
2019-03-03T00:09:33.227Z,798.24
2019-03-03T00:09:37.415Z,798.24
2019-03-03T00:09:41.704Z,798.22
2019-03-03T00:09:46.010Z,798.26
2019-03-03T00:09:50.302Z,798.27
2019-03-03T00:09:54.652Z,798.26
2019-03-03T00:09:58.852Z,798.24
2019-03-03T00:10:03.201Z,798.27
2019-03-03T00:10:07.488Z,798.3
2019-03-03T00:10:11.680Z,798.22
2019-03-03T00:10:15.974Z,798.23
2019-03-03T00:10:20.168Z,798.27
2019-03-03T00:10:24.453Z,798.24
2019-03-03T00:10:28.642Z,798.26
2019-03-03T00:10:32.833Z,798.26
2019-03-03T00:10:37.133Z,798.25
2019-03-03T00:10:41.331Z,798.25
2019-03-03T00:10:45.646Z,798.26
2019-03-03T00:10:49.944Z,798.24
2019-03-03T00:10:54.240Z,798.26
2019-03-03T00:10:58.526Z,798.28
2019-03-03T00:11:02.773Z,798.27
2019-03-03T00:11:07.093Z,798.26
2019-03-03T00:11:11.388Z,798.26
2019-03-03T00:11:15.681Z,798.26
2019-03-03T00:11:19.874Z,798.24
2019-03-03T00:11:24.165Z,798.25
2019-03-03T00:11:28.356Z,798.23
2019-03-03T00:11:32.561Z,798.21
2019-03-03T00:11:36.752Z,798.2
2019-03-03T00:11:41.040Z,798.22
2019-03-03T00:11:45.335Z,798.21
2019-03-03T00:11:49.631Z,798.25
2019-03-03T00:11:53.923Z,798.22
2019-03-03T00:11:58.214Z,798.21
2019-03-03T00:12:02.734Z,798.24
2019-03-03T00:12:07.025Z,798.22
2019-03-03T00:12:11.316Z,798.15
2019-03-03T00:12:15.605Z,798.17
2019-03-03T00:12:19.805Z,798.18
2019-03-03T00:12:24.116Z,798.24
2019-03-03T00:12:28.416Z,798.16
2019-03-03T00:12:32.703Z,798.19
2019-03-03T00:12:36.995Z,798.21
2019-03-03T00:12:41.192Z,798.23
2019-03-03T00:12:45.489Z,798.22
2019-03-03T00:12:49.785Z,798.23
2019-03-03T00:12:54.075Z,798.23
2019-03-03T00:12:58.264Z,798.25
2019-03-03T00:13:02.598Z,798.23
2019-03-03T00:13:06.800Z,798.21
2019-03-03T00:13:11.100Z,798.22
2019-03-03T00:13:15.293Z,798.19
2019-03-03T00:13:19.585Z,798.21
2019-03-03T00:13:23.883Z,798.21
2019-03-03T00:13:28.079Z,798.23
2019-03-03T00:13:32.376Z,798.21
2019-03-03T00:13:36.668Z,798.23
2019-03-03T00:13:41.013Z,798.24
2019-03-03T00:13:45.318Z,798.25
2019-03-03T00:13:49.612Z,798.26
2019-03-03T00:13:53.903Z,798.27
2019-03-03T00:13:58.217Z,798.23
2019-03-03T00:14:02.411Z,798.25
2019-03-03T00:14:06.709Z,798.28
2019-03-03T00:14:11.041Z,798.23
2019-03-03T00:14:15.326Z,798.22
2019-03-03T00:14:19.516Z,798.17
2019-03-03T00:14:23.802Z,798.17
2019-03-03T00:14:28.144Z,798.22
2019-03-03T00:14:32.441Z,798.23
2019-03-03T00:14:36.733Z,798.24
2019-03-03T00:14:41.026Z,798.25
2019-03-03T00:14:45.318Z,798.23
2019-03-03T00:14:49.612Z,798.22
2019-03-03T00:14:53.901Z,798.25
2019-03-03T00:15:00.381Z,798.28
2019-03-03T00:15:04.743Z,798.25
2019-03-03T00:15:09.037Z,798.3
2019-03-03T00:15:13.351Z,798.29
2019-03-03T00:15:17.637Z,798.29
2019-03-03T00:15:21.936Z,798.27
2019-03-03T00:15:26.131Z,798.26
2019-03-03T00:15:30.417Z,798.32
2019-03-03T00:15:34.708Z,798.31
2019-03-03T00:15:39.002Z,798.31
2019-03-03T00:15:43.288Z,798.3
2019-03-03T00:15:47.489Z,798.31
2019-03-03T00:15:51.838Z,798.33
2019-03-03T00:15:56.129Z,798.33
2019-03-03T00:16:00.335Z,798.36
2019-03-03T00:16:04.625Z,798.35
2019-03-03T00:16:08.827Z,798.34
2019-03-03T00:16:13.125Z,798.33
2019-03-03T00:16:17.475Z,798.31
2019-03-03T00:16:21.769Z,798.32
2019-03-03T00:16:26.059Z,798.35
2019-03-03T00:16:30.257Z,798.32
2019-03-03T00:16:34.549Z,798.32
2019-03-03T00:16:38.913Z,798.31
2019-03-03T00:16:43.199Z,798.36
2019-03-03T00:16:47.501Z,798.33
2019-03-03T00:16:51.791Z,798.31
2019-03-03T00:16:56.092Z,798.32
2019-03-03T00:17:00.299Z,798.31
2019-03-03T00:17:04.598Z,798.31
2019-03-03T00:17:08.892Z,798.32
2019-03-03T00:17:13.181Z,798.31
2019-03-03T00:17:17.467Z,798.35
2019-03-03T00:17:21.771Z,798.32
2019-03-03T00:17:26.056Z,798.31
2019-03-03T00:17:30.346Z,798.36
2019-03-03T00:17:34.644Z,798.35
2019-03-03T00:17:38.931Z,798.35
2019-03-03T00:17:43.121Z,798.35
2019-03-03T00:17:47.407Z,798.36
2019-03-03T00:17:51.696Z,798.36
2019-03-03T00:17:55.995Z,798.38
2019-03-03T00:18:00.287Z,798.35
2019-03-03T00:18:04.592Z,798.34
2019-03-03T00:18:08.883Z,798.34
2019-03-03T00:18:13.176Z,798.37
2019-03-03T00:18:17.481Z,798.4
2019-03-03T00:18:21.768Z,798.4
2019-03-03T00:18:26.059Z,798.38
2019-03-03T00:18:30.266Z,798.39
2019-03-03T00:18:34.597Z,798.36
2019-03-03T00:18:38.883Z,798.4
2019-03-03T00:18:43.180Z,798.38
2019-03-03T00:18:47.371Z,798.38
2019-03-03T00:18:51.661Z,798.4
2019-03-03T00:18:55.946Z,798.38
2019-03-03T00:19:00.289Z,798.4
2019-03-03T00:19:04.586Z,798.41
2019-03-03T00:19:08.885Z,798.39
2019-03-03T00:19:13.081Z,798.39
2019-03-03T00:19:17.268Z,798.4
2019-03-03T00:19:21.555Z,798.37
2019-03-03T00:19:25.860Z,798.35
2019-03-03T00:19:30.162Z,798.43
2019-03-03T00:19:34.450Z,798.41
2019-03-03T00:19:38.735Z,798.42
2019-03-03T00:19:43.029Z,798.44
2019-03-03T00:19:47.220Z,798.42
2019-03-03T00:19:51.504Z,798.45
2019-03-03T00:19:55.798Z,798.44
2019-03-03T00:20:00.162Z,798.41
2019-03-03T00:20:04.535Z,798.45
2019-03-03T00:20:08.732Z,798.44
2019-03-03T00:20:13.043Z,798.48
2019-03-03T00:20:17.340Z,798.46
2019-03-03T00:20:21.634Z,798.45
2019-03-03T00:20:25.926Z,798.48
2019-03-03T00:20:30.254Z,798.5
2019-03-03T00:20:34.545Z,798.45
2019-03-03T00:20:38.836Z,798.5
2019-03-03T00:20:43.128Z,798.49
2019-03-03T00:20:47.415Z,798.54
2019-03-03T00:20:51.710Z,798.47
2019-03-03T00:20:56.000Z,798.51
2019-03-03T00:21:00.190Z,798.49
2019-03-03T00:21:04.592Z,798.51
2019-03-03T00:21:08.879Z,798.48
2019-03-03T00:21:13.074Z,798.53
2019-03-03T00:21:17.274Z,798.52
2019-03-03T00:21:21.567Z,798.57
2019-03-03T00:21:25.901Z,798.5
2019-03-03T00:21:30.090Z,798.49
2019-03-03T00:21:34.390Z,798.53
2019-03-03T00:21:38.675Z,798.52
2019-03-03T00:21:42.973Z,798.55
2019-03-03T00:21:47.257Z,798.58
2019-03-03T00:21:51.559Z,798.55
2019-03-03T00:21:55.753Z,798.59
2019-03-03T00:21:59.949Z,798.57
2019-03-03T00:22:04.282Z,798.59
2019-03-03T00:22:08.478Z,798.61
2019-03-03T00:22:12.768Z,798.59
2019-03-03T00:22:17.054Z,798.62
2019-03-03T00:22:21.360Z,798.62
2019-03-03T00:22:25.655Z,798.64
2019-03-03T00:22:29.951Z,798.65
2019-03-03T00:22:34.277Z,798.63
2019-03-03T00:22:38.563Z,798.65
2019-03-03T00:22:42.850Z,798.62
2019-03-03T00:22:47.152Z,798.63
2019-03-03T00:22:51.440Z,798.67
2019-03-03T00:22:55.742Z,798.66
2019-03-03T00:22:59.933Z,798.67
2019-03-03T00:23:04.135Z,798.63
2019-03-03T00:23:08.422Z,798.71
2019-03-03T00:23:12.717Z,798.71
2019-03-03T00:23:17.005Z,798.71
2019-03-03T00:23:21.300Z,798.69
2019-03-03T00:23:25.500Z,798.72
2019-03-03T00:23:29.801Z,798.72
2019-03-03T00:23:34.094Z,798.76
2019-03-03T00:23:38.401Z,798.73
2019-03-03T00:23:42.697Z,798.76
2019-03-03T00:23:46.987Z,798.76
2019-03-03T00:23:51.185Z,798.79
2019-03-03T00:23:55.480Z,798.8
2019-03-03T00:23:59.782Z,798.79
2019-03-03T00:24:04.073Z,798.79
2019-03-03T00:24:08.366Z,798.83
2019-03-03T00:24:12.665Z,798.85
2019-03-03T00:24:16.971Z,798.86
2019-03-03T00:24:21.263Z,798.83
2019-03-03T00:24:25.495Z,798.85
2019-03-03T00:24:29.795Z,798.84
2019-03-03T00:24:33.999Z,798.9
2019-03-03T00:24:38.291Z,798.86
2019-03-03T00:24:42.611Z,798.9
2019-03-03T00:24:46.910Z,798.89
2019-03-03T00:24:51.206Z,798.91
2019-03-03T00:24:55.499Z,798.92
2019-03-03T00:24:59.789Z,798.93
2019-03-03T00:25:04.243Z,798.94
2019-03-03T00:25:08.530Z,798.92
2019-03-03T00:25:12.832Z,798.94
2019-03-03T00:25:17.121Z,798.98
2019-03-03T00:25:21.415Z,799
2019-03-03T00:25:25.765Z,799.01
2019-03-03T00:25:30.072Z,799.02
2019-03-03T00:25:34.360Z,799.03
2019-03-03T00:25:40.721Z,799.05
2019-03-03T00:25:45.024Z,799.06
2019-03-03T00:25:49.319Z,799.06
2019-03-03T00:25:53.615Z,799.08
2019-03-03T00:25:57.807Z,799.1
2019-03-03T00:26:02.250Z,799.08
2019-03-03T00:26:06.547Z,799.09
2019-03-03T00:26:10.848Z,799.1
2019-03-03T00:26:15.140Z,799.13
2019-03-03T00:26:19.347Z,799.15
2019-03-03T00:26:23.641Z,799.15
2019-03-03T00:26:27.838Z,799.17
2019-03-03T00:26:32.127Z,799.18
2019-03-03T00:26:36.429Z,799.17
2019-03-03T00:26:40.731Z,799.19
2019-03-03T00:26:45.037Z,799.18
2019-03-03T00:26:49.357Z,799.18
2019-03-03T00:26:53.653Z,799.19
2019-03-03T00:26:57.940Z,799.22
2019-03-03T00:27:02.236Z,799.23
2019-03-03T00:27:06.539Z,799.24
2019-03-03T00:27:10.838Z,799.26
2019-03-03T00:27:15.134Z,799.32
2019-03-03T00:27:19.437Z,799.31
2019-03-03T00:27:23.738Z,799.28
2019-03-03T00:27:28.039Z,799.3
2019-03-03T00:27:32.332Z,799.27
2019-03-03T00:27:36.658Z,799.29
2019-03-03T00:27:40.854Z,799.33
2019-03-03T00:27:45.150Z,799.31
2019-03-03T00:27:49.374Z,799.31
2019-03-03T00:27:53.664Z,799.29
2019-03-03T00:27:57.923Z,799.3
2019-03-03T00:28:02.264Z,799.32
2019-03-03T00:28:06.556Z,799.34
2019-03-03T00:28:10.848Z,799.38
2019-03-03T00:28:15.134Z,799.36
2019-03-03T00:28:19.431Z,799.4
2019-03-03T00:28:23.726Z,799.39
2019-03-03T00:28:28.021Z,799.4
2019-03-03T00:28:32.315Z,799.41
2019-03-03T00:28:36.606Z,799.4
2019-03-03T00:28:40.956Z,799.42
2019-03-03T00:28:45.241Z,799.4
2019-03-03T00:28:49.594Z,799.44
2019-03-03T00:28:53.941Z,799.43
2019-03-03T00:28:58.238Z,799.42
2019-03-03T00:29:02.753Z,799.41
2019-03-03T00:29:07.041Z,799.42
2019-03-03T00:29:11.339Z,799.42
2019-03-03T00:29:15.638Z,799.4
2019-03-03T00:29:19.938Z,799.37
2019-03-03T00:29:24.140Z,799.4
2019-03-03T00:29:28.443Z,799.41
2019-03-03T00:29:32.735Z,799.4
2019-03-03T00:29:37.360Z,799.38
2019-03-03T00:29:41.662Z,799.39
2019-03-03T00:29:45.957Z,799.39
2019-03-03T00:29:50.250Z,799.39
2019-03-03T00:29:54.564Z,799.4
2019-03-03T00:29:58.876Z,799.39
2019-03-03T00:30:03.172Z,799.37
2019-03-03T00:30:07.467Z,799.39
2019-03-03T00:30:11.765Z,799.38
2019-03-03T00:30:15.977Z,799.38
2019-03-03T00:30:20.278Z,799.39
2019-03-03T00:30:24.678Z,799.38
2019-03-03T00:30:29.045Z,799.38
2019-03-03T00:30:33.346Z,799.38
2019-03-03T00:30:37.547Z,799.38
2019-03-03T00:30:41.841Z,799.41
2019-03-03T00:30:46.139Z,799.41
2019-03-03T00:30:50.333Z,799.38
2019-03-03T00:30:54.619Z,799.34
2019-03-03T00:30:58.852Z,799.33
2019-03-03T00:31:03.357Z,799.34
2019-03-03T00:31:07.651Z,799.38
2019-03-03T00:31:11.941Z,799.38
2019-03-03T00:31:16.282Z,799.41
2019-03-03T00:31:20.584Z,799.37
2019-03-03T00:31:24.876Z,799.38
2019-03-03T00:31:29.163Z,799.41
2019-03-03T00:31:33.361Z,799.41
2019-03-03T00:31:37.657Z,799.36
2019-03-03T00:31:41.954Z,799.36
2019-03-03T00:31:46.250Z,799.37
2019-03-03T00:31:50.540Z,799.4
2019-03-03T00:31:54.832Z,799.36
2019-03-03T00:31:59.130Z,799.32
2019-03-03T00:32:03.491Z,799.33
2019-03-03T00:32:07.783Z,799.35
2019-03-03T00:32:11.991Z,799.33
2019-03-03T00:32:16.276Z,799.32
2019-03-03T00:32:20.481Z,799.33
2019-03-03T00:32:24.833Z,799.33
2019-03-03T00:32:29.031Z,799.3
2019-03-03T00:32:33.332Z,799.34
2019-03-03T00:32:37.532Z,799.32
2019-03-03T00:32:41.817Z,799.33
2019-03-03T00:32:46.159Z,799.35
2019-03-03T00:32:50.452Z,799.35
2019-03-03T00:32:54.744Z,799.34
2019-03-03T00:32:59.093Z,799.36
2019-03-03T00:33:03.436Z,799.36
2019-03-03T00:33:07.740Z,799.38
2019-03-03T00:33:12.030Z,799.37
2019-03-03T00:33:16.318Z,799.36
2019-03-03T00:33:20.617Z,799.36
2019-03-03T00:33:24.931Z,799.37
2019-03-03T00:33:29.222Z,799.39
2019-03-03T00:33:33.568Z,799.38
2019-03-03T00:33:37.874Z,799.36
2019-03-03T00:33:42.175Z,799.36
2019-03-03T00:33:46.463Z,799.32
2019-03-03T00:33:50.658Z,799.31
2019-03-03T00:33:54.947Z,799.37
2019-03-03T00:33:59.233Z,799.35
2019-03-03T00:34:03.471Z,799.35
2019-03-03T00:34:07.766Z,799.35
2019-03-03T00:34:11.969Z,799.33
2019-03-03T00:34:16.270Z,799.37
2019-03-03T00:34:20.559Z,799.35
2019-03-03T00:34:24.861Z,799.37
2019-03-03T00:34:29.151Z,799.41
2019-03-03T00:34:33.435Z,799.38
2019-03-03T00:34:37.737Z,799.42
2019-03-03T00:34:42.029Z,799.38
2019-03-03T00:34:46.323Z,799.41
2019-03-03T00:34:50.604Z,799.4
2019-03-03T00:34:54.896Z,799.42
2019-03-03T00:34:59.182Z,799.43
2019-03-03T00:35:03.479Z,799.39
2019-03-03T00:35:07.789Z,799.42
2019-03-03T00:35:11.993Z,799.45
2019-03-03T00:35:16.092Z,799.39
2019-03-03T00:35:20.292Z,799.41
2019-03-03T00:35:24.592Z,799.41
2019-03-03T00:35:28.882Z,799.43
2019-03-03T00:35:35.173Z,799.48
2019-03-03T00:35:39.461Z,799.46
2019-03-03T00:35:43.753Z,799.47
2019-03-03T00:35:47.950Z,799.49
2019-03-03T00:35:52.249Z,799.47
2019-03-03T00:35:56.545Z,799.53
2019-03-03T00:36:00.838Z,799.52
2019-03-03T00:36:05.134Z,799.55
2019-03-03T00:36:09.438Z,799.56
2019-03-03T00:36:13.742Z,799.54
2019-03-03T00:36:18.031Z,799.56
2019-03-03T00:36:22.323Z,799.55
2019-03-03T00:36:26.616Z,799.6
2019-03-03T00:36:30.908Z,799.58
2019-03-03T00:36:35.196Z,799.62
2019-03-03T00:36:39.482Z,799.62
2019-03-03T00:36:43.770Z,799.64
2019-03-03T00:36:48.056Z,799.61
2019-03-03T00:36:52.417Z,799.6
2019-03-03T00:36:56.703Z,799.56
2019-03-03T00:37:01.001Z,799.57
2019-03-03T00:37:05.298Z,799.61
2019-03-03T00:37:09.592Z,799.6
2019-03-03T00:37:13.790Z,799.59
2019-03-03T00:37:18.105Z,799.64
2019-03-03T00:37:22.390Z,799.63
2019-03-03T00:37:26.703Z,799.64
2019-03-03T00:37:30.991Z,799.66
2019-03-03T00:37:35.286Z,799.65
2019-03-03T00:37:39.581Z,799.69
2019-03-03T00:37:43.894Z,799.71
2019-03-03T00:37:48.196Z,799.68
2019-03-03T00:37:52.487Z,799.67
2019-03-03T00:37:56.741Z,799.71
2019-03-03T00:38:01.027Z,799.72
2019-03-03T00:38:05.315Z,799.69
2019-03-03T00:38:09.409Z,799.74
2019-03-03T00:38:13.708Z,799.74
2019-03-03T00:38:17.996Z,799.76
2019-03-03T00:38:22.289Z,799.72
2019-03-03T00:38:26.574Z,799.74
2019-03-03T00:38:30.827Z,799.75
2019-03-03T00:38:35.122Z,799.77
2019-03-03T00:38:39.415Z,799.75
2019-03-03T00:38:43.705Z,799.79
2019-03-03T00:38:48.059Z,799.8
2019-03-03T00:38:52.349Z,799.75
2019-03-03T00:38:56.654Z,799.77
2019-03-03T00:39:00.942Z,799.8
2019-03-03T00:39:05.236Z,799.77
2019-03-03T00:39:09.374Z,799.77
2019-03-03T00:39:13.666Z,799.79
2019-03-03T00:39:17.965Z,799.78
2019-03-03T00:39:22.256Z,799.8
2019-03-03T00:39:26.544Z,799.79
2019-03-03T00:39:30.840Z,799.79
2019-03-03T00:39:35.030Z,799.8
2019-03-03T00:39:39.324Z,799.79
2019-03-03T00:39:43.614Z,799.77
2019-03-03T00:39:47.937Z,799.8
2019-03-03T00:39:52.225Z,799.76
2019-03-03T00:39:56.518Z,799.77
2019-03-03T00:40:00.851Z,799.76
2019-03-03T00:40:05.051Z,799.71
2019-03-03T00:40:09.252Z,799.77
2019-03-03T00:40:13.541Z,799.78
2019-03-03T00:40:17.853Z,799.79
2019-03-03T00:40:22.141Z,799.76
2019-03-03T00:40:26.350Z,799.79
2019-03-03T00:40:30.657Z,799.76
2019-03-03T00:40:34.793Z,799.74
2019-03-03T00:40:39.080Z,799.76
2019-03-03T00:40:43.380Z,799.68
2019-03-03T00:40:47.570Z,799.77
2019-03-03T00:40:51.859Z,799.77
2019-03-03T00:40:56.050Z,799.75
2019-03-03T00:41:00.245Z,799.74
2019-03-03T00:41:04.452Z,799.73
2019-03-03T00:41:08.746Z,799.78
2019-03-03T00:41:13.085Z,799.79
2019-03-03T00:41:17.378Z,799.75
2019-03-03T00:41:21.692Z,799.79
2019-03-03T00:41:25.937Z,799.7
2019-03-03T00:41:30.228Z,799.76
2019-03-03T00:41:34.417Z,799.8
2019-03-03T00:41:38.755Z,799.76
2019-03-03T00:41:43.062Z,799.76
2019-03-03T00:41:47.261Z,799.78
2019-03-03T00:41:51.551Z,799.76
2019-03-03T00:41:55.835Z,799.78
2019-03-03T00:42:00.130Z,799.77
2019-03-03T00:42:04.415Z,799.77
2019-03-03T00:42:08.698Z,799.79
2019-03-03T00:42:12.984Z,799.74
2019-03-03T00:42:17.171Z,799.76
2019-03-03T00:42:21.281Z,799.7
2019-03-03T00:42:25.496Z,799.76
2019-03-03T00:42:29.793Z,799.74
2019-03-03T00:42:34.089Z,799.77
2019-03-03T00:42:38.377Z,799.77
2019-03-03T00:42:42.666Z,799.77
2019-03-03T00:42:46.958Z,799.79
2019-03-03T00:42:51.243Z,799.76
2019-03-03T00:42:55.529Z,799.74
2019-03-03T00:42:59.822Z,799.79
2019-03-03T00:43:04.061Z,799.78
2019-03-03T00:43:08.257Z,799.79
2019-03-03T00:43:12.348Z,799.8
2019-03-03T00:43:16.688Z,799.8
2019-03-03T00:43:20.987Z,799.79
2019-03-03T00:43:25.286Z,799.82
2019-03-03T00:43:29.488Z,799.78
2019-03-03T00:43:33.779Z,799.8
2019-03-03T00:43:38.063Z,799.84
2019-03-03T00:43:42.250Z,799.83
2019-03-03T00:43:46.442Z,799.87
2019-03-03T00:43:50.735Z,799.8
2019-03-03T00:43:55.024Z,799.86
2019-03-03T00:43:59.360Z,799.85
2019-03-03T00:44:03.653Z,799.86
2019-03-03T00:44:07.942Z,799.86
2019-03-03T00:44:12.228Z,799.9
2019-03-03T00:44:16.467Z,799.88
2019-03-03T00:44:20.761Z,799.86
2019-03-03T00:44:25.050Z,799.86
2019-03-03T00:44:29.346Z,799.91
2019-03-03T00:44:33.677Z,799.87
2019-03-03T00:44:37.982Z,799.9
2019-03-03T00:44:42.275Z,799.88
2019-03-03T00:44:48.213Z,799.86
2019-03-03T00:44:52.497Z,799.91
2019-03-03T00:44:56.794Z,799.86
2019-03-03T00:45:01.080Z,799.85
2019-03-03T00:45:05.473Z,799.92
2019-03-03T00:45:09.804Z,799.85
2019-03-03T00:45:13.997Z,799.86
2019-03-03T00:45:18.296Z,799.92
2019-03-03T00:45:22.579Z,799.9
2019-03-03T00:45:26.885Z,799.91
2019-03-03T00:45:31.172Z,799.93
2019-03-03T00:45:35.463Z,799.91
2019-03-03T00:45:39.757Z,799.91
2019-03-03T00:45:44.056Z,799.88
2019-03-03T00:45:48.059Z,799.89
2019-03-03T00:45:52.356Z,799.9
2019-03-03T00:45:56.646Z,799.89
2019-03-03T00:46:00.854Z,799.88
2019-03-03T00:46:05.052Z,799.89
2019-03-03T00:46:09.346Z,799.88
2019-03-03T00:46:13.640Z,799.84
2019-03-03T00:46:17.931Z,799.87
2019-03-03T00:46:22.217Z,799.85
2019-03-03T00:46:26.501Z,799.87
2019-03-03T00:46:30.807Z,799.85
2019-03-03T00:46:35.123Z,799.88
2019-03-03T00:46:39.411Z,799.86
2019-03-03T00:46:43.613Z,799.84
2019-03-03T00:46:47.898Z,799.85
2019-03-03T00:46:52.183Z,799.86
2019-03-03T00:46:56.528Z,799.83
2019-03-03T00:47:00.818Z,799.81
2019-03-03T00:47:05.109Z,799.78
2019-03-03T00:47:09.396Z,799.79
2019-03-03T00:47:13.687Z,799.82
2019-03-03T00:47:17.976Z,799.79
2019-03-03T00:47:22.258Z,799.83
2019-03-03T00:47:26.557Z,799.81
2019-03-03T00:47:30.742Z,799.77
2019-03-03T00:47:35.033Z,799.8
2019-03-03T00:47:39.319Z,799.79
2019-03-03T00:47:43.604Z,799.79
2019-03-03T00:47:47.888Z,799.79
2019-03-03T00:47:52.173Z,799.79
2019-03-03T00:47:56.456Z,799.78
2019-03-03T00:48:00.746Z,799.8
2019-03-03T00:48:05.054Z,799.83
2019-03-03T00:48:09.248Z,799.83
2019-03-03T00:48:13.534Z,799.81
2019-03-03T00:48:17.821Z,799.8
2019-03-03T00:48:22.015Z,799.81
2019-03-03T00:48:26.307Z,799.81
2019-03-03T00:48:30.598Z,799.83
2019-03-03T00:48:34.891Z,799.81
2019-03-03T00:48:39.187Z,799.8
2019-03-03T00:48:43.485Z,799.85
2019-03-03T00:48:47.779Z,799.87
2019-03-03T00:48:52.086Z,799.84
2019-03-03T00:48:56.177Z,799.81
2019-03-03T00:49:00.465Z,799.89
2019-03-03T00:49:04.752Z,799.84
2019-03-03T00:49:08.944Z,799.83
2019-03-03T00:49:13.231Z,799.83
2019-03-03T00:49:17.329Z,799.84
2019-03-03T00:49:21.624Z,799.84
2019-03-03T00:49:25.930Z,799.85
2019-03-03T00:49:30.218Z,799.84
2019-03-03T00:49:34.522Z,799.85
2019-03-03T00:49:38.853Z,799.84
2019-03-03T00:49:43.141Z,799.77
2019-03-03T00:49:47.437Z,799.76
2019-03-03T00:49:51.719Z,799.77
2019-03-03T00:49:56.005Z,799.8
2019-03-03T00:50:00.295Z,799.76
2019-03-03T00:50:04.593Z,799.78
2019-03-03T00:50:08.893Z,799.76
2019-03-03T00:50:13.183Z,799.72
2019-03-03T00:50:17.374Z,799.76
2019-03-03T00:50:21.671Z,799.72
2019-03-03T00:50:25.958Z,799.74
2019-03-03T00:50:30.264Z,799.78
2019-03-03T00:50:34.555Z,799.79
2019-03-03T00:50:38.852Z,799.76
2019-03-03T00:50:43.142Z,799.77
2019-03-03T00:50:47.340Z,799.76
2019-03-03T00:50:51.626Z,799.76
2019-03-03T00:50:55.912Z,799.81
2019-03-03T00:51:00.201Z,799.79
2019-03-03T00:51:04.500Z,799.79
2019-03-03T00:51:08.711Z,799.79
2019-03-03T00:51:12.998Z,799.79
2019-03-03T00:51:17.293Z,799.8
2019-03-03T00:51:21.583Z,799.76
2019-03-03T00:51:25.874Z,799.77
2019-03-03T00:51:30.173Z,799.74
2019-03-03T00:51:34.473Z,799.77
2019-03-03T00:51:38.766Z,799.79
2019-03-03T00:51:43.055Z,799.79
2019-03-03T00:51:47.348Z,799.83
2019-03-03T00:51:51.636Z,799.76
2019-03-03T00:51:55.922Z,799.77
2019-03-03T00:52:00.212Z,799.81
2019-03-03T00:52:04.408Z,799.8
2019-03-03T00:52:08.705Z,799.82
2019-03-03T00:52:15.045Z,799.83
2019-03-03T00:52:19.337Z,799.83
2019-03-03T00:52:23.634Z,799.83
2019-03-03T00:52:27.927Z,799.82
2019-03-03T00:52:32.133Z,799.78
2019-03-03T00:52:36.422Z,799.82
2019-03-03T00:52:40.732Z,799.85
2019-03-03T00:52:45.026Z,799.86
2019-03-03T00:52:49.319Z,799.83
2019-03-03T00:52:53.607Z,799.84
2019-03-03T00:52:57.900Z,799.84
2019-03-03T00:53:02.202Z,799.84
2019-03-03T00:53:06.401Z,799.81
2019-03-03T00:53:10.610Z,799.86
2019-03-03T00:53:14.899Z,799.89
2019-03-03T00:53:19.196Z,799.9
2019-03-03T00:53:23.491Z,799.87
2019-03-03T00:53:27.687Z,799.88
2019-03-03T00:53:31.977Z,799.84
2019-03-03T00:53:36.271Z,799.87
2019-03-03T00:53:40.467Z,799.89
2019-03-03T00:53:44.666Z,799.87
2019-03-03T00:53:48.954Z,799.84
2019-03-03T00:53:53.244Z,799.88
2019-03-03T00:53:57.547Z,799.86
2019-03-03T00:54:01.737Z,799.85
2019-03-03T00:54:06.078Z,799.86
2019-03-03T00:54:10.389Z,799.84
2019-03-03T00:54:14.585Z,799.82
2019-03-03T00:54:18.873Z,799.81